createdAt,value
2022-10-16T00:01:00.419Z,5.03
2022-10-16T00:03:30.385Z,3.30
2022-10-16T00:06:01.914Z,2.83
2022-10-16T00:08:30.215Z,4.17
2022-10-16T00:11:04.625Z,4.37
2022-10-16T00:13:33.401Z,4.20
2022-10-16T00:16:02.388Z,6.93
2022-10-16T00:18:31.346Z,5.53
2022-10-16T00:21:04.586Z,5.67
2022-10-16T00:23:33.086Z,7.73
2022-10-16T00:26:04.791Z,7.00
2022-10-16T00:28:33.110Z,6.97
2022-10-16T00:31:05.132Z,4.57
2022-10-16T00:33:33.230Z,4.80
2022-10-16T00:36:01.267Z,7.47
2022-10-16T00:38:29.242Z,8.30
2022-10-16T00:40:57.339Z,3.97
2022-10-16T00:43:39.765Z,5.20
2022-10-16T00:46:15.584Z,3.67
2022-10-16T00:48:46.908Z,5.23
2022-10-16T00:51:15.420Z,7.97
2022-10-16T00:53:43.472Z,8.57
2022-10-16T00:56:11.364Z,6.70
2022-10-16T00:58:40.788Z,9.07
2022-10-16T01:01:09.145Z,6.97
2022-10-16T01:03:38.866Z,9.13
2022-10-16T01:06:17.311Z,10.40
2022-10-16T01:08:56.204Z,13.53
2022-10-16T01:11:31.938Z,12.93
2022-10-16T01:14:09.747Z,12.73
2022-10-16T01:16:45.772Z,10.23
2022-10-16T01:19:19.410Z,8.97
2022-10-16T01:21:50.062Z,5.10
2022-10-16T01:24:29.228Z,4.30
2022-10-16T01:27:19.188Z,5.60
2022-10-16T01:29:54.392Z,7.67
2022-10-16T01:32:30.481Z,5.67
2022-10-16T01:35:03.997Z,5.73
2022-10-16T01:37:37.826Z,5.53
2022-10-16T01:43:13.528Z,3.73
2022-10-16T01:45:43.753Z,3.77
2022-10-16T01:48:13.977Z,4.53
2022-10-16T01:50:45.959Z,2.80
2022-10-16T01:53:16.765Z,5.00
2022-10-16T01:55:48.637Z,6.27
2022-10-16T01:58:18.122Z,5.73
2022-10-16T02:00:48.955Z,5.00
2022-10-16T02:03:20.404Z,5.30
2022-10-16T02:05:52.575Z,3.10
2022-10-16T02:08:20.979Z,2.53
2022-10-16T02:10:49.165Z,5.97
2022-10-16T02:13:24.087Z,3.53
2022-10-16T02:15:52.128Z,3.63
2022-10-16T02:18:22.672Z,4.37
2022-10-16T02:20:57.502Z,6.40
2022-10-16T02:23:35.651Z,2.27
2022-10-16T02:26:06.346Z,1.80
2022-10-16T02:28:42.317Z,5.17
2022-10-16T02:31:13.571Z,4.63
2022-10-16T02:33:44.084Z,4.60
2022-10-16T02:36:12.814Z,9.50
2022-10-16T02:38:42.405Z,5.47
2022-10-16T02:41:10.815Z,5.10
2022-10-16T02:43:40.091Z,7.00
2022-10-16T02:46:08.091Z,4.07
2022-10-16T02:48:36.824Z,5.63
2022-10-16T02:51:04.899Z,6.70
2022-10-16T02:53:32.873Z,3.77
2022-10-16T02:56:00.756Z,3.00
2022-10-16T02:58:28.660Z,2.17
2022-10-16T03:00:58.477Z,4.80
2022-10-16T03:03:26.395Z,3.77
2022-10-16T03:05:54.330Z,3.80
2022-10-16T03:08:24.611Z,2.83
2022-10-16T03:10:53.202Z,2.33
2022-10-16T03:13:22.387Z,4.77
2022-10-16T03:15:50.349Z,3.17
2022-10-16T03:18:19.693Z,6.20
2022-10-16T03:20:48.079Z,8.53
2022-10-16T03:23:16.079Z,2.47
2022-10-16T03:25:44.174Z,2.63
2022-10-16T03:28:12.617Z,5.27
2022-10-16T03:30:40.669Z,2.10
2022-10-16T03:33:09.016Z,2.37
2022-10-16T03:35:38.199Z,2.10
2022-10-16T03:38:06.164Z,6.60
2022-10-16T03:40:34.072Z,5.67
2022-10-16T03:43:02.413Z,9.37
2022-10-16T03:45:30.354Z,2.97
2022-10-16T03:47:58.250Z,4.13
2022-10-16T03:50:26.281Z,2.00
2022-10-16T03:52:55.615Z,2.23
2022-10-16T03:55:23.677Z,3.63
2022-10-16T03:57:51.604Z,4.30
2022-10-16T04:00:19.573Z,2.43
2022-10-16T04:05:20.452Z,5.90
2022-10-16T04:07:48.387Z,4.07
2022-10-16T04:10:18.263Z,1.70
2022-10-16T04:12:46.216Z,3.73
2022-10-16T04:15:14.260Z,6.93
2022-10-16T04:17:42.213Z,4.03
2022-10-16T04:20:10.540Z,3.27
2022-10-16T04:22:38.433Z,3.33
2022-10-16T04:25:07.172Z,2.83
2022-10-16T04:27:36.527Z,4.43
2022-10-16T04:30:05.364Z,2.20
2022-10-16T04:32:33.361Z,2.20
2022-10-16T04:35:01.259Z,4.60
2022-10-16T04:37:29.668Z,2.17
2022-10-16T04:39:57.691Z,3.17
2022-10-16T04:42:25.694Z,5.70
2022-10-16T04:44:55.006Z,2.40
2022-10-16T04:47:22.950Z,2.77
2022-10-16T04:49:50.908Z,5.03
2022-10-16T04:52:19.967Z,4.23
2022-10-16T04:54:47.923Z,2.03
2022-10-16T04:57:15.802Z,4.47
2022-10-16T04:59:43.698Z,6.00
2022-10-16T05:02:13.233Z,4.50
2022-10-16T05:04:41.112Z,3.87
2022-10-16T05:07:09.031Z,8.70
2022-10-16T05:09:36.903Z,5.53
2022-10-16T05:12:05.507Z,1.53
2022-10-16T05:14:33.400Z,2.60
2022-10-16T05:17:01.846Z,3.47
2022-10-16T05:19:31.050Z,3.20
2022-10-16T05:21:59.055Z,2.63
2022-10-16T05:24:27.251Z,5.67
2022-10-16T05:26:55.260Z,5.13
2022-10-16T05:29:23.401Z,4.60
2022-10-16T05:31:53.718Z,3.00
2022-10-16T05:34:22.217Z,5.70
2022-10-16T05:36:51.653Z,2.60
2022-10-16T05:39:19.937Z,3.40
2022-10-16T05:41:48.453Z,2.67
2022-10-16T05:44:16.402Z,2.67
2022-10-16T05:46:44.283Z,3.40
2022-10-16T05:49:12.145Z,1.43
2022-10-16T05:51:40.206Z,2.00
2022-10-16T05:54:09.504Z,3.13
2022-10-16T05:56:37.509Z,3.10
2022-10-16T05:59:06.029Z,8.93
2022-10-16T06:01:34.760Z,2.73
2022-10-16T06:04:03.747Z,4.63
2022-10-16T06:06:31.960Z,4.03
2022-10-16T06:09:00.755Z,6.47
2022-10-16T06:11:32.547Z,6.03
2022-10-16T06:14:02.882Z,3.07
2022-10-16T06:16:30.848Z,4.07
2022-10-16T06:19:00.902Z,7.63
2022-10-16T06:21:30.142Z,5.63
2022-10-16T06:23:59.772Z,3.53
2022-10-16T06:26:31.361Z,8.70
2022-10-16T06:29:00.947Z,7.87
2022-10-16T06:31:31.756Z,7.27
2022-10-16T06:34:00.208Z,5.87
2022-10-16T06:36:29.075Z,3.83
2022-10-16T06:38:57.212Z,9.87
2022-10-16T06:41:25.575Z,4.17
2022-10-16T06:43:54.866Z,2.87
2022-10-16T06:46:25.362Z,5.37
2022-10-16T06:48:53.561Z,3.53
2022-10-16T06:51:22.998Z,3.37
2022-10-16T06:54:02.763Z,10.70
2022-10-16T06:56:32.156Z,2.30
2022-10-16T06:59:01.821Z,8.37
2022-10-16T07:01:30.111Z,4.43
2022-10-16T07:03:58.438Z,3.67
2022-10-16T07:06:28.064Z,3.00
2022-10-16T07:08:56.029Z,4.13
2022-10-16T07:11:25.660Z,4.00
2022-10-16T07:13:55.942Z,4.17
2022-10-16T07:16:27.717Z,3.33
2022-10-16T07:18:59.420Z,1.80
2022-10-16T07:21:29.858Z,1.83
2022-10-16T07:23:59.409Z,4.13
2022-10-16T07:26:29.426Z,4.70
2022-10-16T07:28:57.995Z,4.00
2022-10-16T07:31:27.680Z,3.13
2022-10-16T07:33:55.872Z,3.07
2022-10-16T07:36:23.910Z,6.57
2022-10-16T07:38:54.165Z,2.40
2022-10-16T07:41:25.247Z,6.30
2022-10-16T07:43:54.804Z,7.07
2022-10-16T07:46:24.483Z,2.57
2022-10-16T07:48:54.360Z,2.33
2022-10-16T07:51:23.915Z,4.73
2022-10-16T07:53:52.133Z,3.50
2022-10-16T07:56:21.214Z,4.33
2022-10-16T07:58:50.697Z,1.73
2022-10-16T08:01:19.203Z,3.83
2022-10-16T08:03:49.091Z,8.70
2022-10-16T08:06:21.944Z,5.73
2022-10-16T08:08:53.103Z,2.93
2022-10-16T08:11:21.128Z,2.20
2022-10-16T08:13:49.050Z,2.67
2022-10-16T08:16:18.198Z,2.27
2022-10-16T08:18:46.067Z,3.67
2022-10-16T08:21:20.415Z,6.27
2022-10-16T08:23:54.895Z,1.93
2022-10-16T08:26:26.686Z,2.57
2022-10-16T08:28:54.695Z,2.23
2022-10-16T08:31:22.868Z,1.90
2022-10-16T08:33:50.964Z,6.07
2022-10-16T08:36:18.845Z,7.63
2022-10-16T08:38:51.487Z,4.53
2022-10-16T08:41:38.488Z,2.27
2022-10-16T08:44:24.984Z,2.43
2022-10-16T08:47:02.247Z,7.37
2022-10-16T08:49:32.316Z,4.13
2022-10-16T08:52:01.312Z,4.00
2022-10-16T08:54:37.916Z,6.30
2022-10-16T08:57:12.161Z,6.43
2022-10-16T08:59:40.132Z,5.23
2022-10-16T09:02:25.757Z,6.57
2022-10-16T09:05:23.745Z,3.97
2022-10-16T09:10:43.512Z,5.37
2022-10-16T09:13:20.595Z,1.63
2022-10-16T09:15:55.650Z,3.60
2022-10-16T09:18:32.662Z,2.43
2022-10-16T09:21:09.112Z,3.13
2022-10-16T09:23:38.570Z,7.87
2022-10-16T09:26:13.535Z,2.83
2022-10-16T09:28:41.769Z,2.63
2022-10-16T09:31:20.986Z,2.90
2022-10-16T09:33:55.140Z,1.73
2022-10-16T09:36:25.412Z,4.57
2022-10-16T09:39:05.336Z,2.47
2022-10-16T09:41:38.929Z,16.23
2022-10-16T09:44:16.359Z,4.47
2022-10-16T09:46:44.359Z,4.10
2022-10-16T09:49:23.821Z,1.57
2022-10-16T09:51:54.679Z,6.30
2022-10-16T09:54:23.401Z,3.57
2022-10-16T09:56:54.980Z,4.43
2022-10-16T09:59:27.521Z,1.47
2022-10-16T10:01:56.663Z,2.97
2022-10-16T10:04:26.918Z,2.13
2022-10-16T10:06:56.941Z,1.57
2022-10-16T10:09:26.739Z,3.73
2022-10-16T10:11:57.793Z,5.57
2022-10-16T10:14:34.372Z,2.03
2022-10-16T10:17:14.039Z,2.83
2022-10-16T10:19:45.769Z,5.57
2022-10-16T10:22:24.766Z,3.30
2022-10-16T10:25:02.468Z,2.23
2022-10-16T10:27:43.642Z,4.53
2022-10-16T10:30:20.317Z,3.70
2022-10-16T10:32:55.402Z,1.90
2022-10-16T10:35:29.554Z,1.90
2022-10-16T10:38:10.420Z,2.60
2022-10-16T10:40:51.794Z,5.87
2022-10-16T10:43:42.282Z,3.53
2022-10-16T10:46:16.265Z,8.33
2022-10-16T10:49:02.455Z,4.23
2022-10-16T10:51:42.036Z,1.80
2022-10-16T10:54:19.414Z,3.70
2022-10-16T10:56:54.181Z,2.37
2022-10-16T10:59:38.065Z,2.03
2022-10-16T11:02:15.322Z,3.53
2022-10-16T11:05:16.540Z,3.80
2022-10-16T11:07:49.882Z,1.60
2022-10-16T11:10:23.740Z,3.13
2022-10-16T11:12:57.583Z,2.77
2022-10-16T11:15:31.887Z,3.33
2022-10-16T11:18:06.813Z,3.50
2022-10-16T11:20:39.627Z,12.33
2022-10-16T11:23:14.626Z,5.73
2022-10-16T11:25:44.992Z,4.33
2022-10-16T11:28:16.419Z,5.07
2022-10-16T11:30:51.139Z,1.70
2022-10-16T11:33:32.412Z,2.47
2022-10-16T11:36:08.279Z,4.50
2022-10-16T11:38:42.623Z,7.77
2022-10-16T11:41:22.510Z,2.80
2022-10-16T11:44:00.652Z,6.43
2022-10-16T11:46:32.344Z,5.07
2022-10-16T11:49:10.279Z,5.60
2022-10-16T11:51:42.401Z,2.23
2022-10-16T11:54:22.394Z,4.20
2022-10-16T11:56:55.268Z,3.93
2022-10-16T11:59:29.730Z,4.17
2022-10-16T12:02:18.911Z,4.63
2022-10-16T12:04:53.155Z,4.23
2022-10-16T12:07:26.829Z,1.57
2022-10-16T12:09:54.798Z,3.37
2022-10-16T12:12:31.760Z,7.37
2022-10-16T12:15:17.532Z,1.90
2022-10-16T12:17:49.290Z,1.03
2022-10-16T12:20:31.735Z,3.27
2022-10-16T12:23:02.605Z,2.73
2022-10-16T12:25:33.578Z,3.23
2022-10-16T12:28:04.417Z,1.87
2022-10-16T12:30:35.961Z,0.93
2022-10-16T12:33:07.764Z,1.80
2022-10-16T12:35:45.677Z,1.20
2022-10-16T12:38:22.445Z,1.73
2022-10-16T12:40:59.965Z,3.03
2022-10-16T12:43:36.867Z,3.47
2022-10-16T12:46:07.700Z,3.53
2022-10-16T12:48:48.591Z,3.23
2022-10-16T12:51:26.894Z,1.60
2022-10-16T12:54:01.935Z,1.57
2022-10-16T12:59:20.806Z,1.57
2022-10-16T13:02:04.822Z,2.73
2022-10-16T13:04:49.269Z,5.10
2022-10-16T13:07:37.453Z,3.93
2022-10-16T13:10:17.640Z,1.63
2022-10-16T13:13:06.281Z,2.67
2022-10-16T13:15:52.847Z,1.97
2022-10-16T13:18:31.631Z,7.40
2022-10-16T13:21:16.471Z,1.50
2022-10-16T13:23:53.952Z,1.93
2022-10-16T13:26:31.755Z,1.83
2022-10-16T13:29:02.608Z,4.87
2022-10-16T13:31:32.303Z,4.00
2022-10-16T13:34:02.160Z,1.67
2022-10-16T13:36:36.272Z,1.87
2022-10-16T13:39:13.756Z,9.73
2022-10-16T13:41:41.822Z,2.40
2022-10-16T13:44:16.545Z,1.40
2022-10-16T13:46:44.711Z,4.13
2022-10-16T13:49:16.989Z,4.50
2022-10-16T13:51:56.617Z,2.13
2022-10-16T13:54:25.062Z,3.00
2022-10-16T13:57:03.043Z,1.20
2022-10-16T13:59:39.874Z,2.07
2022-10-16T14:02:20.338Z,2.70
2022-10-16T14:04:49.852Z,1.80
2022-10-16T14:07:24.756Z,1.70
2022-10-16T14:09:54.355Z,6.07
2022-10-16T14:12:27.108Z,3.67
2022-10-16T14:14:58.074Z,5.00
2022-10-16T14:17:28.209Z,3.23
2022-10-16T14:20:00.999Z,3.30
2022-10-16T14:22:36.082Z,3.47
2022-10-16T14:25:10.995Z,4.77
2022-10-16T14:27:39.460Z,5.27
2022-10-16T14:30:17.407Z,2.67
2022-10-16T14:32:56.568Z,4.10
2022-10-16T14:35:27.894Z,3.60
2022-10-16T14:37:58.846Z,3.03
2022-10-16T14:40:28.727Z,2.00
2022-10-16T14:42:57.342Z,1.73
2022-10-16T14:45:28.342Z,4.30
2022-10-16T14:47:58.296Z,3.90
2022-10-16T14:50:26.836Z,5.10
2022-10-16T14:52:54.738Z,5.17
2022-10-16T14:58:00.509Z,3.33
2022-10-16T15:00:28.986Z,2.90
2022-10-16T15:02:56.956Z,4.90
2022-10-16T15:05:27.364Z,4.50
2022-10-16T15:07:56.458Z,3.43
2022-10-16T15:10:28.885Z,6.53
2022-10-16T15:12:57.118Z,3.17
2022-10-16T15:15:44.703Z,1.90
2022-10-16T15:18:12.696Z,5.50
2022-10-16T15:20:41.572Z,2.70
2022-10-16T15:23:16.620Z,7.17
2022-10-16T15:25:47.837Z,4.00
2022-10-16T15:28:17.106Z,1.67
2022-10-16T15:30:46.267Z,5.87
2022-10-16T15:33:16.912Z,6.87
2022-10-16T15:35:48.322Z,2.20
2022-10-16T15:38:17.565Z,5.87
2022-10-16T15:40:49.616Z,4.67
2022-10-16T15:43:17.916Z,6.30
2022-10-16T15:45:45.850Z,3.10
2022-10-16T15:48:15.063Z,4.50
2022-10-16T15:53:12.536Z,3.30
2022-10-16T15:55:40.462Z,6.53
2022-10-16T15:58:09.978Z,1.73
2022-10-16T16:00:38.607Z,4.90
2022-10-16T16:03:07.366Z,3.97
2022-10-16T16:05:36.331Z,2.33
2022-10-16T16:08:04.308Z,5.70
2022-10-16T16:10:32.235Z,3.60
2022-10-16T16:13:00.336Z,6.57
2022-10-16T16:15:29.700Z,5.47
2022-10-16T16:17:57.625Z,8.13
2022-10-16T16:20:25.680Z,13.57
2022-10-16T16:22:53.554Z,11.53
2022-10-16T16:25:21.933Z,5.40
2022-10-16T16:27:49.890Z,7.83
2022-10-16T16:30:21.068Z,7.17
2022-10-16T16:32:52.050Z,5.33
2022-10-16T16:35:20.049Z,7.83
2022-10-16T16:37:49.644Z,5.27
2022-10-16T16:40:17.514Z,4.33
2022-10-16T16:42:45.585Z,5.50
2022-10-16T16:45:13.423Z,12.50
2022-10-16T16:47:41.405Z,5.90
2022-10-16T16:50:11.045Z,8.60
2022-10-16T16:52:38.940Z,9.13
2022-10-16T16:55:07.386Z,3.27
2022-10-16T16:57:35.257Z,9.13
2022-10-16T17:00:03.267Z,11.23
2022-10-16T17:02:31.217Z,9.47
2022-10-16T17:04:59.553Z,11.77
2022-10-16T17:07:33.628Z,10.77
2022-10-16T17:10:02.506Z,6.50
2022-10-16T17:12:31.540Z,7.40
2022-10-16T17:14:59.457Z,6.53
2022-10-16T17:17:27.680Z,8.93
2022-10-16T17:19:55.813Z,5.13
2022-10-16T17:22:23.981Z,10.87
2022-10-16T17:24:54.791Z,7.30
2022-10-16T17:27:23.630Z,8.27
2022-10-16T17:29:53.215Z,5.30
2022-10-16T17:32:21.911Z,7.30
2022-10-16T17:34:49.809Z,8.37
2022-10-16T17:37:18.341Z,5.47
2022-10-16T17:39:46.522Z,6.07
2022-10-16T17:42:15.856Z,9.93
2022-10-16T17:44:43.785Z,13.60
2022-10-16T17:47:12.036Z,7.70
2022-10-16T17:49:39.992Z,13.37
2022-10-16T17:52:07.870Z,17.43
2022-10-16T17:54:35.935Z,11.63
2022-10-16T17:57:04.050Z,11.47
2022-10-16T17:59:33.396Z,11.80
2022-10-16T18:02:01.361Z,11.07
2022-10-16T18:04:29.316Z,9.53
2022-10-16T18:06:57.467Z,10.07
2022-10-16T18:09:25.408Z,14.47
2022-10-16T18:11:59.702Z,12.50
2022-10-16T18:14:29.238Z,10.27
2022-10-16T18:16:59.253Z,15.80
2022-10-16T18:19:27.674Z,10.63
2022-10-16T18:21:56.540Z,15.77
2022-10-16T18:24:25.754Z,43.43
2022-10-16T18:26:56.571Z,52.63
2022-10-16T18:29:25.867Z,24.60
2022-10-16T18:31:54.028Z,21.07
2022-10-16T18:34:24.106Z,18.60
2022-10-16T18:36:54.310Z,9.43
2022-10-16T18:39:24.755Z,14.70
2022-10-16T18:41:59.542Z,10.03
2022-10-16T18:44:28.373Z,13.33
2022-10-16T18:46:59.033Z,13.67
2022-10-16T18:49:29.627Z,10.00
2022-10-16T18:51:57.646Z,9.17
2022-10-16T18:54:26.200Z,14.57
2022-10-16T18:56:54.341Z,15.83
2022-10-16T18:59:22.594Z,25.33
2022-10-16T19:01:51.309Z,13.03
2022-10-16T19:04:20.060Z,16.33
2022-10-16T19:06:50.950Z,14.07
2022-10-16T19:09:20.984Z,11.93
2022-10-16T19:11:49.459Z,12.53
2022-10-16T19:14:18.682Z,13.37
2022-10-16T19:16:46.629Z,14.13
2022-10-16T19:19:18.270Z,15.87
2022-10-16T19:21:48.097Z,7.70
2022-10-16T19:24:18.269Z,8.87
2022-10-16T19:26:46.244Z,11.43
2022-10-16T19:29:14.535Z,7.17
2022-10-16T19:31:42.760Z,9.77
2022-10-16T19:34:11.810Z,8.33
2022-10-16T19:36:41.334Z,12.67
2022-10-16T19:39:13.919Z,9.40
2022-10-16T19:41:43.805Z,12.60
2022-10-16T19:44:15.335Z,14.60
2022-10-16T19:46:43.989Z,16.47
2022-10-16T19:49:14.596Z,16.17
2022-10-16T19:51:42.535Z,12.07
2022-10-16T19:54:13.739Z,16.97
2022-10-16T19:56:43.835Z,9.50
2022-10-16T19:59:16.229Z,15.07
2022-10-16T20:01:44.207Z,9.10
2022-10-16T20:04:14.508Z,10.67
2022-10-16T20:06:42.733Z,15.07
2022-10-16T20:09:10.814Z,14.50
2022-10-16T20:11:39.190Z,12.93
2022-10-16T20:14:08.820Z,13.13
2022-10-16T20:16:37.001Z,9.93
2022-10-16T20:19:05.497Z,23.40
2022-10-16T20:21:35.431Z,11.87
2022-10-16T20:24:06.459Z,9.20
2022-10-16T20:26:35.148Z,11.90
2022-10-16T20:29:03.379Z,11.13
2022-10-16T20:31:34.651Z,18.27
2022-10-16T20:34:04.547Z,20.00
2022-10-16T20:36:33.851Z,12.70
2022-10-16T20:39:03.567Z,13.73
2022-10-16T20:41:31.816Z,16.57
2022-10-16T20:43:59.859Z,12.57
2022-10-16T20:46:29.599Z,15.07
2022-10-16T20:49:10.599Z,15.30
2022-10-16T20:51:39.862Z,12.57
2022-10-16T20:54:08.495Z,12.13
2022-10-16T20:56:38.028Z,10.27
2022-10-16T20:59:06.978Z,9.80
2022-10-16T21:01:36.720Z,12.87
2022-10-16T21:04:08.481Z,13.43
2022-10-16T21:06:39.520Z,13.00
2022-10-16T21:09:08.404Z,13.43
2022-10-16T21:11:37.651Z,12.87
2022-10-16T21:14:07.477Z,11.33
2022-10-16T21:16:35.922Z,18.07
2022-10-16T21:19:04.261Z,14.67
2022-10-16T21:21:35.340Z,11.57
2022-10-16T21:24:03.334Z,12.80
2022-10-16T21:26:33.592Z,9.10
2022-10-16T21:29:03.100Z,11.77
2022-10-16T21:31:31.156Z,9.40
2022-10-16T21:33:59.276Z,10.07
2022-10-16T21:36:29.089Z,7.67
2022-10-16T21:42:02.450Z,15.43
2022-10-16T21:44:30.373Z,21.27
2022-10-16T21:46:58.844Z,11.60
2022-10-16T21:49:26.782Z,8.93
2022-10-16T21:51:54.648Z,15.40
2022-10-16T21:54:24.867Z,16.63
2022-10-16T21:56:53.418Z,8.47
2022-10-16T21:59:22.803Z,9.00
2022-10-16T22:01:53.552Z,11.83
2022-10-16T22:04:21.450Z,7.47
2022-10-16T22:06:49.379Z,7.60
2022-10-16T22:09:17.303Z,15.23
2022-10-16T22:11:46.150Z,13.73
2022-10-16T22:14:16.526Z,6.23
2022-10-16T22:16:46.637Z,12.50
2022-10-16T22:19:15.490Z,9.50
2022-10-16T22:21:45.488Z,10.13
2022-10-16T22:24:13.935Z,9.77
2022-10-16T22:26:42.284Z,8.80
2022-10-16T22:29:12.923Z,9.93
2022-10-16T22:31:41.263Z,13.40
2022-10-16T22:34:13.123Z,10.20
2022-10-16T22:36:41.270Z,6.73
2022-10-16T22:39:09.890Z,6.10
2022-10-16T22:41:38.447Z,10.73
2022-10-16T22:44:06.378Z,5.50
2022-10-16T22:46:34.346Z,7.23
2022-10-16T22:49:02.265Z,12.37
2022-10-16T22:51:31.574Z,11.10
2022-10-16T22:53:59.883Z,7.73
2022-10-16T22:56:28.564Z,6.63
2022-10-16T22:58:56.618Z,10.63
2022-10-16T23:01:27.043Z,7.20
2022-10-16T23:03:54.977Z,7.70
2022-10-16T23:06:22.982Z,10.23
2022-10-16T23:08:55.956Z,6.73
2022-10-16T23:11:23.912Z,13.53
2022-10-16T23:13:52.068Z,11.90
2022-10-16T23:16:21.946Z,7.80
2022-10-16T23:18:50.584Z,10.77
2022-10-16T23:21:20.892Z,14.10
2022-10-16T23:23:49.152Z,7.40
2022-10-16T23:26:20.060Z,7.90
2022-10-16T23:28:48.356Z,8.43
2022-10-16T23:31:17.677Z,7.00
2022-10-16T23:33:45.761Z,8.07
2022-10-16T23:36:15.371Z,7.83
2022-10-16T23:38:43.834Z,11.43
2022-10-16T23:41:14.792Z,5.97
2022-10-16T23:43:44.023Z,19.13
2022-10-16T23:46:14.002Z,9.53
2022-10-16T23:48:42.038Z,9.07
2022-10-16T23:51:10.464Z,5.60
2022-10-16T23:53:38.436Z,6.80
2022-10-16T23:56:06.760Z,5.33
2022-10-16T23:58:34.676Z,11.93
